createdAt,value
2018-05-24T00:02:08.906Z,43.30
2018-05-24T00:04:36.504Z,43.30
2018-05-24T00:07:04.174Z,43.40
2018-05-24T00:09:31.657Z,43.40
2018-05-24T00:12:00.039Z,43.60
2018-05-24T00:14:27.614Z,43.60
2018-05-24T00:16:56.003Z,43.60
2018-05-24T00:19:24.360Z,43.80
2018-05-24T00:21:51.949Z,43.70
2018-05-24T00:24:19.938Z,43.80
2018-05-24T00:26:47.544Z,43.90
2018-05-24T00:29:15.049Z,43.90
2018-05-24T00:31:42.588Z,44.00
2018-05-24T00:34:10.250Z,44.10
2018-05-24T00:36:37.812Z,44.10
2018-05-24T00:39:06.325Z,44.30
2018-05-24T00:41:33.792Z,44.30
2018-05-24T00:44:01.301Z,44.30
2018-05-24T00:46:28.804Z,44.30
2018-05-24T00:48:56.320Z,44.40
2018-05-24T00:51:23.795Z,44.40
2018-05-24T00:53:51.448Z,44.40
2018-05-24T00:56:18.950Z,44.50
2018-05-24T00:58:46.434Z,44.50
2018-05-24T01:01:14.028Z,44.60
2018-05-24T01:03:41.519Z,44.50
2018-05-24T01:06:09.836Z,44.60
2018-05-24T01:08:37.318Z,44.60
2018-05-24T01:11:04.936Z,44.60
2018-05-24T01:13:32.506Z,44.60
2018-05-24T01:16:00.074Z,44.70
2018-05-24T01:18:28.576Z,44.80
2018-05-24T01:20:56.995Z,44.80
2018-05-24T01:23:24.483Z,44.80
2018-05-24T01:25:51.998Z,44.90
2018-05-24T01:28:19.672Z,44.90
2018-05-24T01:30:47.279Z,45.00
2018-05-24T01:33:14.882Z,45.60
2018-05-24T01:35:42.618Z,45.00
2018-05-24T01:38:10.152Z,45.10
2018-05-24T01:40:37.742Z,45.20
2018-05-24T01:43:06.014Z,45.50
2018-05-24T01:45:33.535Z,45.50
2018-05-24T01:48:01.073Z,45.60
2018-05-24T01:50:29.355Z,45.80
2018-05-24T01:52:57.673Z,46.40
2018-05-24T01:55:25.156Z,45.90
2018-05-24T01:57:52.679Z,46.00
2018-05-24T02:00:20.216Z,46.10
2018-05-24T02:02:47.761Z,46.20
2018-05-24T02:05:15.293Z,46.30
2018-05-24T02:07:42.940Z,46.40
2018-05-24T02:10:10.461Z,46.30
2018-05-24T02:12:38.008Z,46.40
2018-05-24T02:15:05.554Z,46.40
2018-05-24T02:17:33.155Z,46.20
2018-05-24T02:20:00.842Z,46.60
2018-05-24T02:22:29.122Z,46.80
2018-05-24T02:24:56.780Z,46.80
2018-05-24T02:27:24.304Z,46.90
2018-05-24T02:29:51.820Z,46.90
2018-05-24T02:32:19.386Z,47.10
2018-05-24T02:34:46.971Z,47.10
2018-05-24T02:37:15.264Z,47.30
2018-05-24T02:39:43.577Z,47.20
2018-05-24T02:42:11.186Z,47.30
2018-05-24T02:44:38.752Z,47.40
2018-05-24T02:47:06.400Z,47.50
2018-05-24T02:49:33.891Z,47.60
2018-05-24T02:52:01.473Z,47.70
2018-05-24T02:54:28.953Z,47.70
2018-05-24T02:56:56.469Z,47.80
2018-05-24T02:59:24.724Z,47.90
2018-05-24T03:01:52.252Z,47.80
2018-05-24T03:04:20.605Z,48.00
2018-05-24T03:06:48.883Z,48.60
2018-05-24T03:09:16.392Z,48.00
2018-05-24T03:11:43.883Z,48.00
2018-05-24T03:14:11.529Z,48.10
2018-05-24T03:16:39.048Z,48.10
2018-05-24T03:19:06.575Z,48.20
2018-05-24T03:21:34.193Z,48.30
2018-05-24T03:24:01.856Z,48.30
2018-05-24T03:26:29.466Z,48.40
2018-05-24T03:28:57.729Z,48.40
2018-05-24T03:31:25.367Z,48.40
2018-05-24T03:33:52.899Z,48.90
2018-05-24T03:36:21.240Z,48.50
2018-05-24T03:38:48.771Z,48.40
2018-05-24T03:41:17.229Z,48.70
2018-05-24T03:43:44.953Z,48.60
2018-05-24T03:46:12.813Z,48.70
2018-05-24T03:48:41.163Z,48.90
2018-05-24T03:51:08.689Z,48.90
2018-05-24T03:53:36.231Z,48.80
2018-05-24T03:56:03.713Z,49.00
2018-05-24T03:58:31.947Z,49.00
2018-05-24T04:01:11.550Z,49.00
2018-05-24T04:03:49.720Z,49.10
2018-05-24T04:06:17.252Z,49.20
2018-05-24T04:08:45.525Z,49.20
2018-05-24T04:11:13.961Z,49.30
2018-05-24T04:13:41.553Z,49.30
2018-05-24T04:16:09.057Z,49.40
2018-05-24T04:18:36.740Z,49.30
2018-05-24T04:21:05.035Z,49.40
2018-05-24T04:23:33.341Z,49.30
2018-05-24T04:26:00.871Z,49.30
2018-05-24T04:28:29.183Z,49.30
2018-05-24T04:30:57.464Z,49.40
2018-05-24T04:33:24.964Z,49.40
2018-05-24T04:35:52.530Z,49.40
2018-05-24T04:38:20.078Z,49.30
2018-05-24T04:40:48.353Z,49.40
2018-05-24T04:43:15.945Z,49.40
2018-05-24T04:45:44.288Z,49.40
2018-05-24T04:48:12.130Z,49.40
2018-05-24T04:50:39.673Z,49.40
2018-05-24T04:53:07.544Z,49.30
2018-05-24T04:55:35.070Z,49.40
2018-05-24T04:58:02.605Z,49.50
2018-05-24T05:00:30.905Z,49.70
2018-05-24T05:02:58.440Z,49.50
2018-05-24T05:05:26.769Z,49.60
2018-05-24T05:07:54.320Z,49.40
2018-05-24T05:10:22.581Z,49.40
2018-05-24T05:12:50.189Z,49.30
2018-05-24T05:15:18.463Z,49.40
2018-05-24T05:17:46.055Z,49.40
2018-05-24T05:20:14.356Z,49.40
2018-05-24T05:22:41.908Z,49.40
2018-05-24T05:25:10.251Z,49.70
2018-05-24T05:27:37.758Z,49.60
2018-05-24T05:30:06.005Z,49.70
2018-05-24T05:32:33.648Z,49.60
2018-05-24T05:35:01.199Z,49.80
2018-05-24T05:37:29.534Z,49.80
2018-05-24T05:39:57.036Z,49.80
2018-05-24T05:42:24.627Z,49.60
2018-05-24T05:44:52.982Z,49.50
2018-05-24T05:47:20.476Z,49.40
2018-05-24T05:49:48.045Z,49.30
2018-05-24T05:52:15.719Z,49.30
2018-05-24T05:54:43.195Z,48.90
2018-05-24T05:57:11.575Z,49.50
2018-05-24T05:59:39.148Z,49.50
2018-05-24T06:02:06.788Z,49.50
2018-05-24T06:04:34.272Z,49.60
2018-05-24T06:07:01.783Z,49.70
2018-05-24T06:09:30.032Z,49.70
2018-05-24T06:11:57.765Z,49.60
2018-05-24T06:14:25.310Z,49.60
2018-05-24T06:16:53.642Z,49.60
2018-05-24T06:19:21.188Z,49.60
2018-05-24T06:21:49.482Z,47.50
2018-05-24T06:24:17.043Z,47.50
2018-05-24T06:26:45.317Z,46.40
2018-05-24T06:29:12.913Z,46.40
2018-05-24T06:31:40.465Z,46.60
2018-05-24T06:34:08.704Z,46.90
2018-05-24T06:36:36.443Z,46.80
2018-05-24T06:39:03.948Z,47.00
2018-05-24T06:41:31.476Z,47.10
2018-05-24T06:43:59.724Z,47.40
2018-05-24T06:46:27.295Z,47.40
2018-05-24T06:48:54.755Z,47.50
2018-05-24T06:51:22.328Z,47.40
2018-05-24T06:53:50.141Z,47.30
2018-05-24T06:56:17.590Z,47.20
2018-05-24T06:58:45.108Z,47.00
2018-05-24T07:01:12.710Z,46.80
2018-05-24T07:03:40.353Z,46.30
2018-05-24T07:06:07.830Z,46.30
2018-05-24T07:08:35.362Z,46.10
2018-05-24T07:11:03.179Z,46.00
2018-05-24T07:13:30.733Z,46.10
2018-05-24T07:15:59.111Z,46.20
2018-05-24T07:18:27.364Z,46.20
2018-05-24T07:20:54.875Z,46.20
2018-05-24T07:23:23.186Z,46.30
2018-05-24T07:25:50.688Z,46.30
2018-05-24T07:28:18.281Z,46.10
2018-05-24T07:30:45.885Z,46.10
2018-05-24T07:33:13.493Z,46.10
2018-05-24T07:35:41.677Z,45.90
2018-05-24T07:38:09.302Z,46.20
2018-05-24T07:40:37.570Z,46.20
2018-05-24T07:43:05.213Z,46.20
2018-05-24T07:45:32.699Z,46.00
2018-05-24T07:48:00.235Z,45.80
2018-05-24T07:50:27.712Z,45.70
2018-05-24T07:52:55.399Z,45.60
2018-05-24T07:55:23.018Z,45.70
2018-05-24T07:57:50.621Z,45.70
2018-05-24T08:00:18.189Z,45.50
2018-05-24T08:02:45.733Z,45.40
2018-05-24T08:05:13.269Z,45.40
2018-05-24T08:07:40.745Z,45.40
2018-05-24T08:10:08.262Z,45.50
2018-05-24T08:12:35.859Z,45.40
2018-05-24T08:15:03.443Z,45.30
2018-05-24T08:17:31.159Z,45.20
2018-05-24T08:19:58.738Z,45.10
2018-05-24T08:22:27.085Z,44.50
2018-05-24T08:24:54.630Z,44.50
2018-05-24T08:27:22.171Z,44.30
2018-05-24T08:29:50.464Z,44.20
2018-05-24T08:32:18.725Z,43.90
2018-05-24T08:34:46.252Z,43.90
2018-05-24T08:37:13.746Z,43.20
2018-05-24T08:39:41.341Z,43.40
2018-05-24T08:42:08.824Z,43.70
2018-05-24T08:44:36.356Z,43.30
2018-05-24T08:47:03.904Z,43.10
2018-05-24T08:49:31.405Z,42.90
2018-05-24T08:51:58.899Z,42.70
2018-05-24T08:54:26.412Z,42.20
2018-05-24T08:56:53.899Z,42.30
2018-05-24T08:59:21.583Z,41.40
2018-05-24T09:01:49.223Z,41.60
2018-05-24T09:04:16.787Z,41.80
2018-05-24T09:06:44.343Z,41.50
2018-05-24T09:09:12.653Z,40.90
2018-05-24T09:11:40.174Z,40.90
2018-05-24T09:14:07.663Z,40.90
2018-05-24T09:16:35.253Z,40.50
2018-05-24T09:19:03.754Z,40.00
2018-05-24T09:21:31.294Z,39.90
2018-05-24T09:23:58.854Z,39.50
2018-05-24T09:26:26.351Z,39.60
2018-05-24T09:28:54.720Z,38.60
2018-05-24T09:31:22.553Z,38.50
2018-05-24T09:33:50.141Z,38.50
2018-05-24T09:36:17.660Z,38.50
2018-05-24T09:38:46.074Z,38.10
2018-05-24T09:41:13.640Z,38.00
2018-05-24T09:43:41.260Z,38.10
2018-05-24T09:46:08.988Z,38.00
2018-05-24T09:48:36.470Z,38.10
2018-05-24T09:51:04.013Z,38.30
2018-05-24T09:53:32.472Z,38.40
2018-05-24T09:55:59.987Z,38.30
2018-05-24T09:58:28.293Z,37.30
2018-05-24T10:00:55.835Z,37.30
2018-05-24T10:03:24.247Z,36.50
2018-05-24T10:05:51.795Z,36.50
2018-05-24T10:08:20.069Z,36.40
2018-05-24T10:10:47.548Z,36.40
2018-05-24T10:13:15.126Z,36.60
2018-05-24T10:15:43.508Z,36.80
2018-05-24T10:18:11.087Z,36.80
2018-05-24T10:20:39.488Z,36.70
2018-05-24T10:23:07.783Z,36.70
2018-05-24T10:25:35.453Z,36.70
2018-05-24T10:28:03.757Z,35.60
2018-05-24T10:30:31.329Z,35.60
2018-05-24T10:32:58.804Z,35.20
2018-05-24T10:35:26.335Z,35.20
2018-05-24T10:37:54.038Z,35.00
2018-05-24T10:40:21.563Z,34.80
2018-05-24T10:42:49.265Z,34.30
2018-05-24T10:45:17.735Z,33.40
2018-05-24T10:47:45.203Z,33.40
2018-05-24T10:50:12.720Z,33.50
2018-05-24T10:52:40.241Z,33.10
2018-05-24T10:55:07.866Z,33.30
2018-05-24T10:57:35.339Z,33.40
2018-05-24T11:00:03.038Z,33.50
2018-05-24T11:02:30.593Z,33.50
2018-05-24T11:04:58.090Z,32.80
2018-05-24T11:07:25.601Z,31.90
2018-05-24T11:09:53.845Z,31.80
2018-05-24T11:12:21.641Z,31.80
2018-05-24T11:14:49.107Z,31.30
2018-05-24T11:17:16.725Z,31.00
2018-05-24T11:19:44.239Z,31.00
2018-05-24T11:22:11.756Z,31.00
2018-05-24T11:24:40.032Z,30.20
2018-05-24T11:27:08.272Z,30.00
2018-05-24T11:29:35.788Z,29.90
2018-05-24T11:32:04.077Z,29.50
2018-05-24T11:34:32.401Z,29.50
2018-05-24T11:36:59.895Z,29.50
2018-05-24T11:39:27.459Z,29.20
2018-05-24T11:41:55.069Z,29.10
2018-05-24T11:44:22.545Z,28.30
2018-05-24T11:46:50.960Z,28.70
2018-05-24T11:49:18.474Z,28.60
2018-05-24T11:51:46.062Z,28.50
2018-05-24T11:54:13.665Z,28.40
2018-05-24T11:56:42.042Z,27.60
2018-05-24T11:59:10.307Z,27.70
2018-05-24T12:01:37.823Z,27.70
2018-05-24T12:04:05.312Z,27.50
2018-05-24T12:06:32.908Z,27.20
2018-05-24T12:09:00.508Z,27.10
2018-05-24T12:11:28.060Z,26.70
2018-05-24T12:13:56.610Z,26.80
2018-05-24T12:16:24.346Z,26.30
2018-05-24T12:18:52.700Z,26.20
2018-05-24T12:21:20.208Z,26.10
2018-05-24T12:23:47.823Z,26.20
2018-05-24T12:26:15.344Z,25.90
2018-05-24T12:28:43.161Z,26.10
2018-05-24T12:31:10.692Z,26.20
2018-05-24T12:33:38.189Z,26.50
2018-05-24T12:36:06.438Z,25.60
2018-05-24T12:38:34.016Z,25.60
2018-05-24T12:41:02.312Z,25.30
2018-05-24T12:43:29.830Z,25.30
2018-05-24T12:45:57.678Z,25.10
2018-05-24T12:48:26.142Z,25.50
2018-05-24T12:50:53.652Z,25.60
2018-05-24T12:53:22.033Z,24.70
2018-05-24T12:55:50.447Z,25.10
2018-05-24T12:58:18.014Z,25.10
2018-05-24T13:00:45.586Z,24.70
2018-05-24T13:03:13.250Z,24.80
2018-05-24T13:05:41.740Z,24.80
2018-05-24T13:08:10.248Z,24.90
2018-05-24T13:10:37.887Z,24.90
2018-05-24T13:13:05.404Z,25.10
2018-05-24T13:15:33.003Z,25.50
2018-05-24T13:18:00.738Z,25.00
2018-05-24T13:20:28.292Z,25.20
2018-05-24T13:22:56.540Z,25.70
2018-05-24T13:25:24.144Z,25.70
2018-05-24T13:27:52.415Z,25.80
2018-05-24T13:30:19.901Z,25.80
2018-05-24T13:32:48.313Z,25.40
2018-05-24T13:35:15.871Z,25.30
2018-05-24T13:37:44.247Z,25.10
2018-05-24T13:40:12.072Z,25.10
2018-05-24T13:42:39.578Z,25.40
2018-05-24T13:45:07.178Z,25.30
2018-05-24T13:47:35.474Z,25.30
2018-05-24T13:50:03.786Z,25.30
2018-05-24T13:52:31.358Z,25.30
2018-05-24T13:54:58.910Z,25.10
2018-05-24T13:57:44.900Z,25.10
2018-05-24T14:00:13.209Z,25.50
2018-05-24T14:02:40.746Z,25.70
2018-05-24T14:05:08.362Z,25.10
2018-05-24T14:07:35.893Z,25.60
2018-05-24T14:10:03.416Z,25.60
2018-05-24T14:12:30.902Z,25.40
2018-05-24T14:14:58.419Z,26.00
2018-05-24T14:17:26.759Z,25.90
2018-05-24T14:19:55.111Z,25.90
2018-05-24T14:22:23.493Z,25.80
2018-05-24T14:24:51.808Z,25.40
2018-05-24T14:27:19.452Z,25.40
2018-05-24T14:29:47.833Z,25.70
2018-05-24T14:32:15.415Z,25.70
2018-05-24T14:34:43.699Z,25.40
2018-05-24T14:37:12.591Z,25.30
2018-05-24T14:39:40.226Z,25.30
2018-05-24T14:42:07.702Z,25.50
2018-05-24T14:44:35.344Z,26.30
2018-05-24T14:47:02.916Z,26.20
2018-05-24T14:49:30.463Z,26.80
2018-05-24T14:51:58.762Z,27.10
2018-05-24T14:54:26.287Z,27.10
2018-05-24T14:56:53.801Z,26.60
2018-05-24T14:59:22.102Z,26.80
2018-05-24T15:01:49.661Z,26.80
2018-05-24T15:04:17.942Z,27.20
2018-05-24T15:06:46.218Z,27.10
2018-05-24T15:09:13.827Z,27.10
2018-05-24T15:11:41.320Z,27.20
2018-05-24T15:14:09.539Z,27.00
2018-05-24T15:16:37.103Z,27.10
2018-05-24T15:19:04.597Z,26.80
2018-05-24T15:21:32.179Z,26.80
2018-05-24T15:24:00.438Z,27.20
2018-05-24T15:26:28.061Z,27.10
2018-05-24T15:28:55.629Z,27.10
2018-05-24T15:31:23.126Z,27.10
2018-05-24T15:33:50.668Z,27.10
2018-05-24T15:36:18.146Z,27.10
2018-05-24T15:38:45.639Z,27.30
2018-05-24T15:41:13.264Z,27.20
2018-05-24T15:43:41.640Z,27.30
2018-05-24T15:46:09.097Z,27.20
2018-05-24T15:48:36.699Z,26.90
2018-05-24T15:51:05.003Z,27.60
2018-05-24T15:53:32.569Z,27.60
2018-05-24T15:56:00.856Z,27.50
2018-05-24T15:58:28.432Z,27.50
2018-05-24T16:00:55.935Z,28.40
2018-05-24T16:03:23.480Z,27.60
2018-05-24T16:05:51.098Z,27.40
2018-05-24T16:08:18.781Z,27.10
2018-05-24T16:10:46.303Z,27.30
2018-05-24T16:13:13.919Z,27.30
2018-05-24T16:15:41.413Z,27.40
2018-05-24T16:18:09.741Z,27.70
2018-05-24T16:20:37.480Z,27.70
2018-05-24T16:23:04.994Z,27.90
2018-05-24T16:25:32.723Z,28.00
2018-05-24T16:28:00.226Z,27.90
2018-05-24T16:30:27.811Z,28.00
2018-05-24T16:32:55.275Z,27.90
2018-05-24T16:35:22.929Z,28.40
2018-05-24T16:37:50.403Z,28.10
2018-05-24T16:40:17.971Z,28.30
2018-05-24T16:42:46.362Z,28.50
2018-05-24T16:45:14.009Z,28.40
2018-05-24T16:47:41.604Z,28.30
2018-05-24T16:50:10.742Z,28.40
2018-05-24T16:52:38.292Z,28.40
2018-05-24T16:55:05.787Z,28.10
2018-05-24T16:57:33.330Z,28.30
2018-05-24T17:00:00.819Z,28.50
2018-05-24T17:02:28.586Z,28.10
2018-05-24T17:04:56.117Z,28.00
2018-05-24T17:07:24.388Z,28.50
2018-05-24T17:09:51.999Z,28.50
2018-05-24T17:12:19.512Z,28.40
2018-05-24T17:14:47.032Z,28.60
2018-05-24T17:17:15.318Z,29.10
2018-05-24T17:19:43.178Z,29.00
2018-05-24T17:22:11.638Z,29.10
2018-05-24T17:24:39.147Z,29.50
2018-05-24T17:27:06.764Z,29.70
2018-05-24T17:29:34.321Z,30.00
2018-05-24T17:32:01.897Z,30.00
2018-05-24T17:34:29.434Z,30.00
2018-05-24T17:36:58.482Z,30.30
2018-05-24T17:39:26.089Z,30.30
2018-05-24T17:41:53.765Z,30.20
2018-05-24T17:44:21.396Z,30.60
2018-05-24T17:46:49.555Z,30.30
2018-05-24T17:49:17.972Z,30.60
2018-05-24T17:51:45.476Z,30.60
2018-05-24T17:54:13.106Z,30.80
2018-05-24T17:56:41.504Z,31.20
2018-05-24T17:59:09.033Z,31.20
2018-05-24T18:01:36.529Z,30.90
2018-05-24T18:04:04.837Z,30.90
2018-05-24T18:06:32.365Z,30.90
2018-05-24T18:09:00.682Z,30.70
2018-05-24T18:11:28.248Z,30.70
2018-05-24T18:13:56.555Z,31.10
2018-05-24T18:16:24.028Z,31.00
2018-05-24T18:18:51.592Z,31.00
2018-05-24T18:21:19.137Z,31.10
2018-05-24T18:23:46.665Z,31.30
2018-05-24T18:26:14.192Z,31.20
2018-05-24T18:28:41.699Z,32.00
2018-05-24T18:31:09.221Z,31.60
2018-05-24T18:33:37.489Z,31.70
2018-05-24T18:36:05.067Z,31.70
2018-05-24T18:38:34.116Z,31.90
2018-05-24T18:41:01.667Z,31.90
2018-05-24T18:43:29.960Z,31.90
2018-05-24T18:45:58.251Z,32.20
2018-05-24T18:48:26.546Z,32.80
2018-05-24T18:50:55.109Z,32.40
2018-05-24T18:53:22.604Z,32.40
2018-05-24T18:55:50.885Z,32.50
2018-05-24T18:58:19.190Z,32.40
2018-05-24T19:00:46.749Z,32.30
2018-05-24T19:03:15.165Z,34.80
2018-05-24T19:05:42.728Z,34.60
2018-05-24T19:08:10.302Z,37.50
2018-05-24T19:10:38.570Z,35.50
2018-05-24T19:13:06.900Z,34.60
2018-05-24T19:15:34.440Z,34.50
2018-05-24T19:18:02.721Z,34.00
2018-05-24T19:20:31.023Z,33.60
2018-05-24T19:22:58.611Z,33.60
2018-05-24T19:25:26.141Z,33.60
2018-05-24T19:27:55.175Z,33.20
2018-05-24T19:30:22.772Z,33.20
2018-05-24T19:32:50.430Z,33.20
2018-05-24T19:35:18.037Z,33.20
2018-05-24T19:37:46.203Z,33.10
2018-05-24T19:40:13.757Z,33.20
2018-05-24T19:42:41.527Z,33.20
2018-05-24T19:45:09.129Z,32.90
2018-05-24T19:47:36.700Z,32.80
2018-05-24T19:50:04.345Z,33.10
2018-05-24T19:52:31.909Z,33.10
2018-05-24T19:54:59.472Z,32.90
2018-05-24T19:57:27.909Z,33.20
2018-05-24T19:59:55.433Z,33.10
2018-05-24T20:02:23.837Z,33.20
2018-05-24T20:04:52.131Z,33.30
2018-05-24T20:07:19.668Z,33.30
2018-05-24T20:09:47.248Z,33.40
2018-05-24T20:12:16.591Z,33.40
2018-05-24T20:14:44.269Z,33.40
2018-05-24T20:17:12.850Z,33.40
2018-05-24T20:19:40.544Z,33.50
2018-05-24T20:22:08.046Z,33.50
2018-05-24T20:24:35.674Z,34.10
2018-05-24T20:27:03.256Z,33.70
2018-05-24T20:29:30.789Z,33.60
2018-05-24T20:31:59.178Z,33.70
2018-05-24T20:34:26.775Z,33.70
2018-05-24T20:36:54.280Z,33.80
2018-05-24T20:39:21.796Z,33.90
2018-05-24T20:41:50.706Z,34.00
2018-05-24T20:44:18.977Z,34.10
2018-05-24T20:46:46.500Z,34.10
2018-05-24T20:49:14.113Z,34.20
2018-05-24T20:51:41.690Z,34.30
2018-05-24T20:54:10.014Z,34.10
2018-05-24T20:56:37.931Z,34.30
2018-05-24T20:59:05.438Z,34.50
2018-05-24T21:01:33.728Z,35.00
2018-05-24T21:04:02.136Z,35.10
2018-05-24T21:06:30.404Z,35.20
2018-05-24T21:08:57.933Z,35.20
2018-05-24T21:11:25.623Z,35.40
2018-05-24T21:13:53.188Z,35.50
2018-05-24T21:16:20.865Z,35.70
2018-05-24T21:18:48.430Z,35.80
2018-05-24T21:21:15.959Z,36.00
2018-05-24T21:23:44.217Z,36.30
2018-05-24T21:26:11.742Z,36.30
2018-05-24T21:28:39.313Z,36.40
2018-05-24T21:31:06.845Z,36.50
2018-05-24T21:33:35.149Z,36.80
2018-05-24T21:36:03.448Z,36.90
2018-05-24T21:38:30.983Z,36.80
2018-05-24T21:40:58.508Z,37.00
2018-05-24T21:43:26.071Z,37.10
2018-05-24T21:45:53.630Z,37.20
2018-05-24T21:48:22.007Z,37.80
2018-05-24T21:50:50.311Z,37.40
2018-05-24T21:53:17.868Z,37.40
2018-05-24T21:55:46.159Z,37.50
2018-05-24T21:58:14.462Z,37.70
2018-05-24T22:00:47.687Z,37.70
2018-05-24T22:03:15.196Z,37.70
2018-05-24T22:05:42.792Z,37.80
2018-05-24T22:08:11.298Z,37.90
2018-05-24T22:10:38.874Z,37.90
2018-05-24T22:13:06.422Z,37.90
2018-05-24T22:15:34.806Z,38.10
2018-05-24T22:18:03.089Z,38.30
2018-05-24T22:20:30.633Z,38.10
2018-05-24T22:22:58.144Z,38.80
2018-05-24T22:25:26.515Z,38.30
2018-05-24T22:27:54.098Z,38.30
2018-05-24T22:30:22.516Z,38.50
2018-05-24T22:32:50.012Z,38.40
2018-05-24T22:35:17.583Z,38.50
2018-05-24T22:37:45.201Z,39.10
2018-05-24T22:40:12.778Z,38.60
2018-05-24T22:42:41.174Z,38.90
2018-05-24T22:45:09.437Z,38.90
2018-05-24T22:47:37.021Z,38.90
2018-05-24T22:50:04.495Z,39.00
2018-05-24T22:52:32.801Z,39.20
2018-05-24T22:55:00.333Z,39.20
2018-05-24T22:57:27.934Z,39.20
2018-05-24T22:59:56.222Z,39.40
2018-05-24T23:02:24.477Z,39.50
2018-05-24T23:04:52.088Z,39.50
2018-05-24T23:07:20.501Z,39.70
2018-05-24T23:09:48.060Z,39.60
2018-05-24T23:12:16.328Z,39.80
2018-05-24T23:14:44.641Z,39.90
2018-05-24T23:17:12.275Z,39.90
2018-05-24T23:19:39.867Z,40.10
2018-05-24T23:22:07.425Z,40.20
2018-05-24T23:24:34.985Z,40.30
2018-05-24T23:27:02.687Z,40.40
2018-05-24T23:29:30.935Z,40.50
2018-05-24T23:31:58.436Z,40.50
2018-05-24T23:34:26.708Z,40.90
2018-05-24T23:36:54.269Z,40.80
2018-05-24T23:39:21.911Z,40.90
2018-05-24T23:41:49.563Z,41.00
2018-05-24T23:44:17.849Z,41.20
2018-05-24T23:46:45.495Z,41.10
2018-05-24T23:49:13.016Z,41.30
2018-05-24T23:51:40.712Z,41.40
2018-05-24T23:54:08.194Z,41.30
2018-05-24T23:56:35.804Z,41.40
2018-05-24T23:59:04.081Z,41.60
